Sahagun, Spain
Current Conditions -  °F | °C
As of 9:00 PM on Wednesday 22 Oct 2014 (Local Time) from LELN Reporting Station
Clear Clear  
Wind Chill: 10°   Ceiling: Unl
Heat Index: 10°   Visibility: 6mi
Dew Point:   Wind: 0mph
Humidity: 82%   Direction: NA
Pressure: 30.39"   Gusts: NA
Location:  42.37°N, 5.03°W
Report Text: LELN 221900Z 00000KT CAVOK 10/07 Q1029
Loading
Personal Weather Stations






























Interactive Weather Map
Tropical Storm Tracking
New forecast layout! Learn more

10-Day Weather Forecast

Advertisements
Track Severe Weather on mobile